Time;durP1;ratioP1;P1;durP2;ratioP2;P2;SDS_P1;SDS_P2;PMS_P1;PMS_P2;Temp;Humidity;BMP_temperature;BMP_pressure;BME280_temperature;BME280_humidity;BME280_pressure;Samples;Min_cycle;Max_cycle;Signal;HPM_P1;HPM_P2
2021/09/30 00:01:07;;;;;;;5.20;2.92;;;;;;;10.10;87.77;101342.06;5005443;28;20056;-81
2021/09/30 00:03:34;;;;;;;4.75;3.15;;;;;;;10.08;87.64;101356.88;5018746;28;20558;-84
2021/09/30 00:06:00;;;;;;;4.28;2.10;;;;;;;10.09;87.20;101355.16;5006839;28;20544;-83
2021/09/30 00:08:27;;;;;;;2.17;1.80;;;;;;;10.10;87.32;101352.53;5025030;28;20045;-81
2021/09/30 00:10:59;;;;;;;2.70;2.00;;;;;;;10.11;86.56;101356.00;5021234;28;20108;-83
2021/09/30 00:13:42;;;;;;;3.28;1.98;;;;;;;10.03;86.86;101368.19;5027094;28;20037;-85
2021/09/30 00:16:28;;;;;;;1.67;1.58;;;;;;;10.05;86.88;101356.88;5039080;28;20057;-84
2021/09/30 00:32:55;;;;;;;2.75;1.40;;;;;;;9.85;86.74;101380.28;5028999;28;20060;-82
2021/09/30 00:35:37;;;;;;;3.00;1.48;;;;;;;9.92;86.29;101386.44;5026120;28;20065;-82
2021/09/30 00:46:21;;;;;;;2.97;1.27;;;;;;;9.93;86.26;101404.78;5019077;28;20269;-82
2021/09/30 00:48:58;;;;;;;5.13;1.88;;;;;;;9.94;85.66;101408.25;5015792;28;20277;-83
2021/09/30 00:51:30;;;;;;;3.00;1.73;;;;;;;9.93;85.72;101403.88;5021205;28;20436;-84
2021/09/30 01:46:28;;;;;;;2.90;1.63;;;;;;;9.89;85.30;101449.19;5019757;28;20081;-81
2021/09/30 02:20:18;;;;;;;7.80;1.50;;;;;;;9.91;84.16;101465.78;5023846;28;20046;-82
2021/09/30 02:23:07;;;;;;;2.72;1.30;;;;;;;9.90;84.49;101471.88;5017090;28;20040;-84
2021/09/30 02:28:48;;;;;;;2.90;1.40;;;;;;;9.87;84.27;101477.94;5035133;28;20116;-83
2021/09/30 02:59:35;;;;;;;1.45;1.05;;;;;;;9.47;86.00;101475.00;5016187;28;20057;-82
2021/09/30 03:02:06;;;;;;;6.25;1.20;;;;;;;9.46;86.87;101491.53;5016383;28;20518;-81
2021/09/30 03:04:34;;;;;;;2.63;1.30;;;;;;;9.46;86.77;101490.69;5021057;28;20120;-79
2021/09/30 03:07:02;;;;;;;4.95;1.45;;;;;;;9.42;85.76;101498.47;5010272;28;20484;-81
2021/09/30 03:09:39;;;;;;;1.52;1.08;;;;;;;9.38;86.23;101496.69;5014682;28;20477;-80
2021/09/30 03:12:16;;;;;;;3.72;1.15;;;;;;;9.29;87.02;101504.44;5018888;28;20053;-81
2021/09/30 03:14:58;;;;;;;2.75;1.20;;;;;;;9.23;87.48;101500.06;5017075;28;20038;-82
2021/09/30 03:17:41;;;;;;;3.00;1.70;;;;;;;9.19;87.68;101507.81;5018296;28;20054;-83
2021/09/30 03:20:27;;;;;;;3.67;1.33;;;;;;;9.15;87.59;101506.94;5020195;28;20476;-81
2021/09/30 03:22:56;;;;;;;4.82;1.23;;;;;;;9.13;87.90;101511.25;5007617;28;20068;-82
2021/09/30 03:25:23;;;;;;;8.95;2.55;;;;;;;9.14;88.06;101514.75;5024077;28;20049;-81
2021/09/30 03:27:52;;;;;;;2.72;1.13;;;;;;;9.19;87.88;101513.94;5025420;28;20073;-81
2021/09/30 03:30:19;;;;;;;2.63;1.20;;;;;;;9.21;87.73;101519.19;5021440;28;20044;-81
2021/09/30 03:32:45;;;;;;;1.95;1.50;;;;;;;9.19;87.82;101510.44;5021115;28;20068;-80
2021/09/30 03:35:12;;;;;;;5.43;2.30;;;;;;;9.16;88.32;101521.72;5018380;28;20068;-80
2021/09/30 03:37:39;;;;;;;5.00;1.80;;;;;;;9.09;88.63;101528.63;5006237;28;20103;-80
2021/09/30 03:40:07;;;;;;;2.25;2.05;;;;;;;9.07;88.84;101532.09;5020705;28;20053;-81
2021/09/30 03:42:34;;;;;;;3.65;1.85;;;;;;;9.06;89.32;101531.22;5022284;28;20076;-81
2021/09/30 03:45:01;;;;;;;2.55;1.80;;;;;;;9.07;88.88;101532.09;5023079;28;20092;-82
2021/09/30 03:47:28;;;;;;;2.50;1.88;;;;;;;9.08;89.40;101541.69;5006944;28;20049;-81
2021/09/30 03:49:55;;;;;;;3.65;1.75;;;;;;;9.01;89.58;101532.91;5029501;28;20038;-83
2021/09/30 03:52:26;;;;;;;5.07;2.00;;;;;;;8.97;89.20;101528.50;5013087;28;20128;-82
2021/09/30 03:55:04;;;;;;;3.25;2.13;;;;;;;8.98;89.16;101538.06;5021284;28;20066;-83
2021/09/30 03:57:39;;;;;;;1.92;1.77;;;;;;;8.95;89.72;101548.50;5027887;28;20045;-82
2021/09/30 04:00:05;;;;;;;8.43;4.00;;;;;;;8.89;90.03;101548.41;5020770;28;20052;-83
2021/09/30 04:02:32;;;;;;;4.70;2.40;;;;;;;8.85;90.18;101546.63;5018542;28;20045;-82
2021/09/30 04:04:58;;;;;;;3.28;1.70;;;;;;;8.86;90.13;101537.94;5024128;28;20077;-81
2021/09/30 04:07:28;;;;;;;3.00;2.33;;;;;;;8.85;90.13;101544.91;5021838;28;20054;-80
2021/09/30 04:09:56;;;;;;;2.53;2.35;;;;;;;8.87;90.04;101544.91;5027033;28;20034;-81
2021/09/30 04:12:22;;;;;;;3.33;2.25;;;;;;;8.90;90.41;101558.91;5026387;28;21289;-84
2021/09/30 04:14:49;;;;;;;7.97;3.00;;;;;;;8.91;90.02;101560.63;5023262;28;20056;-83
2021/09/30 04:17:15;;;;;;;3.08;1.90;;;;;;;8.93;89.91;101561.53;5018840;28;20063;-84
2021/09/30 04:19:42;;;;;;;5.28;2.50;;;;;;;8.90;89.63;101565.84;5017392;28;20096;-83
2021/09/30 04:22:10;;;;;;;5.20;3.78;;;;;;;8.86;89.90;101566.66;5007011;28;20474;-82
2021/09/30 04:24:38;;;;;;;4.40;4.07;;;;;;;8.78;90.28;101575.25;5024260;28;21135;-84
2021/09/30 04:27:05;;;;;;;2.60;2.40;;;;;;;8.73;90.34;101573.44;5029113;28;20068;-84
2021/09/30 04:29:32;;;;;;;4.38;2.20;;;;;;;8.65;90.81;101573.34;5028850;28;20049;-82
2021/09/30 04:31:58;;;;;;;3.45;2.90;;;;;;;8.62;91.02;101573.31;5027334;28;20045;-82
2021/09/30 04:34:28;;;;;;;6.47;2.60;;;;;;;8.49;91.57;101569.66;5031780;28;20132;-81
2021/09/30 04:36:55;;;;;;;4.28;2.45;;;;;;;8.46;92.22;101582.66;5015296;28;20113;-81
2021/09/30 04:39:22;;;;;;;3.83;3.38;;;;;;;8.44;92.06;101581.72;5013787;28;20504;-82
2021/09/30 04:41:48;;;;;;;2.65;2.45;;;;;;;8.40;92.71;101582.53;5015433;28;20465;-85
2021/09/30 04:44:15;;;;;;;4.40;2.38;;;;;;;8.36;92.98;101592.03;5021031;28;20042;-81
2021/09/30 04:46:43;;;;;;;3.13;2.92;;;;;;;8.32;92.98;101591.94;5033230;28;20045;-80
2021/09/30 04:49:09;;;;;;;4.03;2.85;;;;;;;8.30;93.51;101593.69;5036992;28;20064;-82
2021/09/30 04:51:36;;;;;;;2.92;2.20;;;;;;;8.27;93.56;101592.75;5033335;28;20125;-81
2021/09/30 04:54:03;;;;;;;4.70;2.90;;;;;;;8.36;93.04;101597.25;5039938;28;20053;-80
2021/09/30 04:56:30;;;;;;;3.30;2.42;;;;;;;8.35;93.05;101597.22;5020255;28;20138;-80
2021/09/30 04:59:03;;;;;;;2.38;2.17;;;;;;;8.32;93.32;101602.38;5010617;28;20108;-82
2021/09/30 05:01:30;;;;;;;5.07;2.53;;;;;;;8.26;93.74;101597.97;5018132;28;20052;-82
2021/09/30 05:03:57;;;;;;;8.82;3.17;;;;;;;8.27;93.82;101603.19;5025199;28;20124;-81
2021/09/30 05:06:25;;;;;;;4.75;3.03;;;;;;;8.27;93.98;101603.19;5032152;28;20042;-81
2021/09/30 05:08:56;;;;;;;6.85;2.70;;;;;;;8.27;94.14;101605.81;5028076;28;20504;-81
2021/09/30 05:11:23;;;;;;;6.82;2.58;;;;;;;8.30;94.09;101612.81;5019887;28;20045;-83
2021/09/30 05:13:53;;;;;;;6.07;3.10;;;;;;;8.26;94.13;101611.88;5026123;28;20037;-82
2021/09/30 05:16:22;;;;;;;3.13;2.92;;;;;;;8.26;93.92;101617.09;5031431;28;20049;-82
2021/09/30 05:18:50;;;;;;;4.72;3.10;;;;;;;8.23;94.07;101622.25;5023685;28;20045;-81
2021/09/30 05:21:19;;;;;;;7.15;2.70;;;;;;;8.20;94.92;101617.00;5031147;28;20156;-82
2021/09/30 05:23:47;;;;;;;4.25;3.03;;;;;;;8.19;95.42;101617.00;5025864;28;20045;-81
2021/09/30 05:26:14;;;;;;;5.75;3.45;;;;;;;8.22;95.25;101623.09;5030013;28;20041;-84
2021/09/30 05:28:42;;;;;;;5.50;3.35;;;;;;;8.21;94.95;101624.00;5024716;28;20080;-84
2021/09/30 05:31:08;;;;;;;6.28;3.83;;;;;;;8.24;95.31;101618.81;5027360;28;20072;-82
2021/09/30 05:33:35;;;;;;;3.25;2.95;;;;;;;8.32;94.70;101636.28;5032224;28;20841;-82
2021/09/30 05:36:02;;;;;;;8.20;3.65;;;;;;;8.31;94.40;101622.38;5035838;28;20102;-82
2021/09/30 05:38:30;;;;;;;9.07;3.58;;;;;;;8.34;94.13;101639.81;5012424;28;20133;-84
2021/09/30 05:40:57;;;;;;;2.75;2.60;;;;;;;8.32;95.13;101638.91;5012333;28;20068;-81
2021/09/30 05:43:26;;;;;;;3.63;3.28;;;;;;;8.28;94.56;101638.88;5037607;28;20081;-84
2021/09/30 05:45:55;;;;;;;5.72;3.88;;;;;;;8.27;94.47;101634.50;5018928;28;20437;-84
2021/09/30 05:48:23;;;;;;;7.00;4.72;;;;;;;8.27;94.86;101636.25;5029380;28;20145;-82
2021/09/30 05:50:50;;;;;;;7.72;4.43;;;;;;;8.29;94.91;101634.50;5011276;28;20099;-82
2021/09/30 05:53:17;;;;;;;6.78;4.75;;;;;;;8.29;95.10;101642.34;5044506;28;20056;-83
2021/09/30 05:55:45;;;;;;;8.65;5.15;;;;;;;8.30;94.68;101635.41;5026553;28;20587;-83
2021/09/30 05:58:14;;;;;;;8.05;4.57;;;;;;;8.30;94.42;101638.03;5027157;28;20041;-82
2021/09/30 06:00:51;;;;;;;5.72;4.25;;;;;;;8.35;94.61;101646.81;5022346;28;20053;-82
2021/09/30 06:11:46;;;;;;;5.50;4.47;;;;;;;8.43;94.25;101646.06;5027928;28;19933;-84
2021/09/30 06:14:16;;;;;;;8.90;4.95;;;;;;;8.50;93.64;101640.97;5029528;28;20342;-82
2021/09/30 06:16:47;;;;;;;5.72;4.57;;;;;;;8.54;93.51;101651.50;5005848;28;20054;-83
2021/09/30 06:19:19;;;;;;;10.40;5.35;;;;;;;8.60;93.25;101641.16;5018098;28;20052;-81
2021/09/30 06:21:50;;;;;;;8.20;4.13;;;;;;;8.65;92.62;101649.03;5024359;28;20116;-81
2021/09/30 06:24:20;;;;;;;4.22;3.83;;;;;;;8.71;92.46;101646.53;5006626;28;20041;-81
2021/09/30 06:26:49;;;;;;;4.43;3.47;;;;;;;8.76;91.31;101652.69;5021776;28;20211;-81
2021/09/30 06:29:16;;;;;;;5.85;3.95;;;;;;;8.85;91.10;101657.19;5023072;28;20132;-81
2021/09/30 06:31:43;;;;;;;5.93;3.47;;;;;;;8.90;90.36;101652.00;5023804;28;20062;-80
2021/09/30 06:34:10;;;;;;;6.68;4.18;;;;;;;9.03;90.39;101648.69;5022446;28;20121;-81
2021/09/30 06:36:38;;;;;;;6.75;3.63;;;;;;;9.26;89.41;101654.22;5014176;28;20062;-81
2021/09/30 06:39:05;;;;;;;5.43;3.63;;;;;;;9.55;86.95;101655.44;5021563;28;20049;-81
2021/09/30 06:41:31;;;;;;;4.75;3.35;;;;;;;9.81;85.65;101655.72;5016227;28;20382;-81
2021/09/30 06:43:58;;;;;;;5.88;3.80;;;;;;;10.03;84.07;101651.56;5037968;28;20041;-83
2021/09/30 06:46:25;;;;;;;5.18;3.78;;;;;;;10.24;83.78;101657.88;5020677;28;20113;-81
2021/09/30 06:48:52;;;;;;;4.43;3.20;;;;;;;10.38;82.03;101661.50;5017183;28;20042;-80
2021/09/30 06:51:19;;;;;;;3.33;2.65;;;;;;;10.51;81.13;101661.63;4992955;28;20054;-81
2021/09/30 06:53:47;;;;;;;5.82;3.03;;;;;;;10.62;80.06;101659.94;5007604;28;20057;-81
2021/09/30 06:56:16;;;;;;;6.00;2.88;;;;;;;10.74;79.72;101670.50;5028792;28;20045;-79
2021/09/30 06:58:45;;;;;;;6.25;3.13;;;;;;;10.93;79.25;101668.00;5035422;28;20042;-83
2021/09/30 07:01:13;;;;;;;4.15;2.47;;;;;;;11.13;78.17;101662.84;5010831;28;20121;-81
2021/09/30 07:03:40;;;;;;;6.05;3.25;;;;;;;11.23;77.20;101669.88;5029693;28;20038;-82
2021/09/30 07:06:07;;;;;;;6.75;2.45;;;;;;;11.34;76.91;101680.44;5010485;28;20053;-81
2021/09/30 07:12:15;;;;;;;7.00;2.90;;;;;;;11.62;75.94;101692.78;5028371;28;20037;-79
2021/09/30 07:14:43;;;;;;;3.65;3.20;;;;;;;11.81;75.31;101686.72;5041878;28;20037;-81
2021/09/30 07:21:00;;;;;;;5.22;3.00;;;;;;;12.13;73.26;101701.69;5030489;28;20033;-81
2021/09/30 07:23:32;;;;;;;4.78;3.10;;;;;;;12.29;73.67;101699.06;4997534;28;20049;-81
2021/09/30 07:26:00;;;;;;;9.90;3.72;;;;;;;12.53;72.12;101704.34;4996215;28;20053;-80
2021/09/30 07:28:36;;;;;;;5.55;4.18;;;;;;;12.65;71.11;101692.94;5023488;28;20034;-83
2021/09/30 07:31:15;;;;;;;9.57;3.67;;;;;;;12.69;70.08;101686.78;5027808;28;20057;-80
2021/09/30 07:33:45;;;;;;;6.10;3.60;;;;;;;12.70;70.29;101695.56;5022030;28;20362;-82
2021/09/30 07:36:13;;;;;;;8.15;4.25;;;;;;;12.70;69.82;101699.06;5011726;28;20048;-84
2021/09/30 07:38:41;;;;;;;7.43;4.07;;;;;;;12.82;69.53;101698.16;5013901;28;20079;-81
2021/09/30 07:41:08;;;;;;;4.90;3.10;;;;;;;13.00;68.97;101693.78;5028872;28;20037;-84
2021/09/30 07:43:35;;;;;;;5.18;3.22;;;;;;;13.08;67.65;101702.50;5039920;28;20048;-82
2021/09/30 07:46:02;;;;;;;8.93;3.45;;;;;;;12.88;68.07;101705.16;5029768;28;20045;-81
2021/09/30 07:48:29;;;;;;;7.38;3.35;;;;;;;12.41;70.23;101713.09;5020055;28;20460;-82
2021/09/30 07:50:55;;;;;;;5.38;3.05;;;;;;;12.11;72.05;101707.78;5030024;28;20045;-82
2021/09/30 07:53:23;;;;;;;6.32;3.13;;;;;;;11.85;72.93;101711.19;5046264;28;20050;-80
2021/09/30 07:55:50;;;;;;;5.97;3.38;;;;;;;11.59;74.54;101718.13;5023568;28;20058;-80
2021/09/30 07:58:17;;;;;;;7.50;3.50;;;;;;;11.46;75.18;101718.94;5029656;28;20800;-81
2021/09/30 08:00:44;;;;;;;3.58;3.28;;;;;;;11.48;75.34;101730.31;5014764;28;20046;-81
2021/09/30 08:03:12;;;;;;;10.25;3.40;;;;;;;11.49;75.44;101733.81;5030938;28;20045;-82
2021/09/30 08:05:39;;;;;;;6.13;3.00;;;;;;;11.51;75.37;101732.97;5010764;28;20132;-82
2021/09/30 08:08:09;;;;;;;6.60;3.05;;;;;;;11.56;75.19;101731.22;5016390;28;20042;-81
2021/09/30 08:10:40;;;;;;;6.68;3.17;;;;;;;11.62;74.93;101733.00;5004344;28;20053;-81
2021/09/30 08:13:09;;;;;;;6.60;2.80;;;;;;;11.99;73.14;101734.91;5026665;28;20049;-83
2021/09/30 08:15:37;;;;;;;6.50;2.20;;;;;;;12.60;70.59;101738.47;5019531;28;20050;-82
2021/09/30 08:18:04;;;;;;;3.90;2.22;;;;;;;13.18;68.07;101743.69;5002125;28;20069;-83
2021/09/30 08:20:32;;;;;;;2.35;2.17;;;;;;;13.69;65.50;101756.69;5017955;28;20047;-83
2021/09/30 08:22:59;;;;;;;3.53;1.95;;;;;;;14.28;63.58;101735.28;5023291;28;20046;-82
2021/09/30 08:25:27;;;;;;;6.10;1.80;;;;;;;14.74;61.16;101742.00;5009453;28;20080;-83
2021/09/30 08:27:54;;;;;;;5.00;2.17;;;;;;;14.86;60.78;101738.38;5022891;28;20041;-80
2021/09/30 08:30:20;;;;;;;7.63;1.77;;;;;;;14.99;60.52;101741.75;5006416;28;20377;-82
2021/09/30 08:32:47;;;;;;;3.97;1.83;;;;;;;15.13;59.94;101736.34;5027802;28;20132;-80
2021/09/30 08:35:13;;;;;;;4.07;1.30;;;;;;;15.12;59.45;101753.94;5011726;28;20050;-80
2021/09/30 08:37:40;;;;;;;3.35;1.63;;;;;;;15.32;59.18;101756.38;5021739;28;20053;-81
2021/09/30 08:40:08;;;;;;;4.03;1.58;;;;;;;15.53;58.38;101762.28;5030233;28;20053;-82
2021/09/30 08:42:36;;;;;;;2.05;1.15;;;;;;;15.60;57.35;101757.81;5027310;28;20408;-82
2021/09/30 08:45:08;;;;;;;4.53;1.33;;;;;;;15.45;57.94;101759.75;5025529;28;20042;-82
2021/09/30 08:47:35;;;;;;;5.80;1.77;;;;;;;15.30;59.37;101765.19;5004053;28;20069;-80
2021/09/30 08:50:02;;;;;;;6.30;1.45;;;;;;;15.20;59.51;101759.13;5030632;28;20045;-82
2021/09/30 08:52:31;;;;;;;5.68;1.65;;;;;;;14.63;61.04;101762.28;5040496;28;20053;-81
2021/09/30 08:54:58;;;;;;;2.42;1.05;;;;;;;14.29;62.55;101770.41;5023371;28;20145;-79
2021/09/30 08:57:25;;;;;;;3.47;1.55;;;;;;;13.72;63.83;101766.31;5026119;28;20471;-81
2021/09/30 09:00:10;;;;;;;8.88;1.45;;;;;;;13.44;65.88;101770.81;4999942;28;20053;-80
2021/09/30 09:02:41;;;;;;;;;;;;;;;13.24;66.82;101769.97;5018906;28;20054;-81
2021/09/30 09:05:09;;;;;;;5.03;1.92;;;;;;;13.13;67.59;101771.72;4999772;28;19928;-80
2021/09/30 09:07:36;;;;;;;3.67;1.70;;;;;;;12.94;68.15;101770.00;5005007;28;20092;-80
2021/09/30 09:10:09;;;;;;;4.93;1.38;;;;;;;12.81;69.30;101762.09;5021394;28;20042;-81
2021/09/30 09:12:41;;;;;;;5.47;2.13;;;;;;;12.73;69.47;101764.72;5022777;28;20052;-80
2021/09/30 09:15:08;;;;;;;4.53;1.30;;;;;;;12.79;69.69;101777.00;5021222;28;20041;-80
2021/09/30 09:17:39;;;;;;;3.45;1.45;;;;;;;12.78;69.94;101761.25;5020350;28;20472;-81
2021/09/30 09:20:08;;;;;;;5.65;1.38;;;;;;;12.84;68.90;101762.13;5021556;28;20042;-83
2021/09/30 09:22:37;;;;;;;4.47;1.63;;;;;;;12.85;69.13;101748.13;5004484;28;20045;-83
2021/09/30 09:25:16;;;;;;;4.82;1.08;;;;;;;12.86;67.63;101759.50;5017155;28;20038;-80
2021/09/30 09:28:00;;;;;;;8.70;1.55;;;;;;;12.88;67.83;101750.72;5017395;28;20049;-82
2021/09/30 09:30:34;;;;;;;;;;;;;;;12.95;68.23;101753.34;5005522;28;20049;-81
2021/09/30 09:33:27;;;;;;;3.88;1.80;;;;;;;13.08;66.94;101755.94;5018448;28;19937;-81
2021/09/30 09:36:07;;;;;;;7.70;2.08;;;;;;;13.33;66.44;101763.78;5025275;28;20369;-82
2021/09/30 09:38:42;;;;;;;2.00;1.17;;;;;;;14.37;61.81;101763.34;5007240;28;20435;-85
2021/09/30 09:41:12;;;;;;;4.18;1.23;;;;;;;15.48;58.76;101758.84;5034390;28;20045;-82
2021/09/30 09:43:46;;;;;;;2.33;0.98;;;;;;;16.71;54.40;101766.81;5023777;28;20057;-83
2021/09/30 09:46:14;;;;;;;2.22;0.82;;;;;;;17.60;51.67;101759.03;5023368;28;20041;-80
2021/09/30 09:48:56;;;;;;;5.80;1.00;;;;;;;18.46;49.18;101756.25;5019523;28;20116;-81
2021/09/30 09:51:23;;;;;;;6.03;1.60;;;;;;;19.10;47.15;101757.28;5020026;28;20046;-81
2021/09/30 09:53:58;;;;;;;4.38;1.42;;;;;;;18.82;46.16;101753.56;5003022;28;20054;-82
2021/09/30 09:56:32;;;;;;;3.33;0.73;;;;;;;19.10;45.79;101766.16;5020152;28;20038;-80
2021/09/30 09:59:01;;;;;;;4.88;1.08;;;;;;;19.14;45.37;101767.81;5023578;28;20037;-79
2021/09/30 10:01:39;;;;;;;3.92;1.08;;;;;;;18.75;45.55;101759.09;5042582;28;20064;-81
2021/09/30 10:04:07;;;;;;;2.35;0.52;;;;;;;18.74;45.73;101760.00;5021583;28;20599;-80
2021/09/30 10:06:35;;;;;;;2.08;0.90;;;;;;;19.10;46.28;101763.50;5040831;28;20061;-82
2021/09/30 10:09:05;;;;;;;1.67;0.60;;;;;;;19.39;43.90;101758.31;5005767;28;20033;-82
2021/09/30 10:11:33;;;;;;;1.60;0.65;;;;;;;19.91;43.18;101762.09;4996576;28;20052;-80
2021/09/30 10:14:19;;;;;;;4.10;0.60;;;;;;;20.33;41.98;101755.50;5026855;28;20084;-80
2021/09/30 10:16:49;;;;;;;2.40;1.10;;;;;;;21.12;41.92;101759.06;5025787;28;20058;-84
2021/09/30 10:19:17;;;;;;;3.70;1.60;;;;;;;22.03;38.67;101757.50;5010788;28;20046;-80
2021/09/30 10:21:43;;;;;;;1.45;0.52;;;;;;;21.20;39.17;101745.47;5024239;28;20490;-81
2021/09/30 10:24:17;;;;;;;2.72;0.73;;;;;;;20.27;42.05;101776.94;5018837;28;20118;-81
2021/09/30 10:26:47;;;;;;;4.90;1.00;;;;;;;19.30;43.17;101764.72;5006893;28;20078;-80
2021/09/30 10:29:46;;;;;;;3.67;0.75;;;;;;;17.97;45.75;101770.63;5031250;28;20056;-80
2021/09/30 10:32:23;;;;;;;3.03;0.63;;;;;;;17.96;46.22;101771.53;5026467;28;20096;-80
2021/09/30 10:34:59;;;;;;;3.10;0.60;;;;;;;17.59;46.58;101767.88;5025994;28;20061;-80
2021/09/30 10:37:29;;;;;;;5.40;1.08;;;;;;;17.53;47.25;101771.53;5027176;28;20084;-81
2021/09/30 10:40:15;;;;;;;6.57;1.42;;;;;;;16.89;47.71;101775.34;5027551;28;20050;-81
2021/09/30 10:42:53;;;;;;;1.23;0.50;;;;;;;17.06;48.05;101767.13;5033321;28;20042;-82
2021/09/30 10:45:20;;;;;;;8.52;0.90;;;;;;;16.70;48.93;101775.66;5015673;28;20037;-81
2021/09/30 10:47:48;;;;;;;4.93;1.02;;;;;;;16.97;48.70;101781.38;5029209;28;20191;-83
2021/09/30 10:50:15;;;;;;;2.30;1.08;;;;;;;17.47;47.61;101791.91;5024845;28;20061;-82
2021/09/30 10:52:56;;;;;;;5.22;0.95;;;;;;;17.63;46.99;101789.88;5045436;28;20038;-81
2021/09/30 10:55:22;;;;;;;4.13;0.88;;;;;;;16.86;48.92;101785.06;5013839;28;20100;-81
2021/09/30 10:57:58;;;;;;;2.00;0.80;;;;;;;16.49;50.08;101776.84;5038679;28;20069;-80
2021/09/30 11:00:31;;;;;;;6.40;0.75;;;;;;;16.22;50.25;101779.03;5011635;28;20038;-80
2021/09/30 11:03:09;;;;;;;5.57;1.45;;;;;;;17.05;48.87;101775.97;5041154;28;20053;-82
2021/09/30 11:05:39;;;;;;;2.38;0.85;;;;;;;17.92;46.39;101772.47;5023342;28;20045;-80
2021/09/30 11:08:17;;;;;;;4.30;1.15;;;;;;;18.52;45.19;101776.44;5024442;28;20442;-80
2021/09/30 11:11:02;;;;;;;6.07;0.90;;;;;;;19.49;43.13;101770.41;5024237;28;20034;-80
2021/09/30 11:13:38;;;;;;;6.72;0.70;;;;;;;20.58;40.92;101768.00;5042651;28;20069;-81
2021/09/30 11:16:15;;;;;;;8.02;0.77;;;;;;;22.28;37.87;101762.69;5029749;28;20519;-80
2021/09/30 11:18:59;;;;;;;2.78;1.20;;;;;;;22.04;37.47;101769.00;5030897;28;20051;-82
2021/09/30 11:21:31;;;;;;;4.05;0.80;;;;;;;20.65;38.40;101772.19;5007489;28;20041;-81
2021/09/30 11:24:11;;;;;;;5.03;0.80;;;;;;;19.76;40.93;101783.78;5022838;28;20045;-81
2021/09/30 11:26:51;;;;;;;3.10;0.70;;;;;;;18.93;42.03;101789.59;5010375;28;20049;-81
2021/09/30 11:29:21;;;;;;;1.80;0.73;;;;;;;17.81;44.27;101788.63;5023359;28;20046;-84
2021/09/30 11:32:10;;;;;;;3.30;0.50;;;;;;;16.54;48.11;101769.72;5018975;28;20096;-82
2021/09/30 11:34:50;;;;;;;4.47;1.48;;;;;;;15.96;49.86;101787.31;5019874;28;20076;-81
2021/09/30 11:37:40;;;;;;;4.68;1.17;;;;;;;16.07;50.32;101797.72;5023896;28;20472;-83
2021/09/30 11:40:17;;;;;;;2.95;0.60;;;;;;;16.28;49.59;101796.56;5005530;28;20407;-81
2021/09/30 11:42:53;;;;;;;9.30;1.52;;;;;;;16.01;50.60;101796.06;5019042;28;20034;-81
2021/09/30 11:45:34;;;;;;;3.95;0.77;;;;;;;16.72;48.13;101786.19;5019281;28;20046;-81
2021/09/30 11:48:08;;;;;;;3.83;0.65;;;;;;;18.35;43.95;101776.84;5028502;28;20083;-81
2021/09/30 11:50:49;;;;;;;;;;;;;;;;;;;;;
2021/09/30 11:53:26;;;;;;;6.68;2.05;;;;;;;17.95;44.63;101780.38;5017325;23;20081;-86
2021/09/30 11:56:04;;;;;;;4.13;0.65;;;;;;;18.99;41.85;101784.13;5000021;28;20049;-84
2021/09/30 11:58:31;;;;;;;2.22;0.75;;;;;;;19.81;39.31;101779.22;4980388;28;20050;-85
2021/09/30 12:00:57;;;;;;;5.78;0.82;;;;;;;19.49;40.06;101779.22;5002040;28;20058;-86
2021/09/30 12:03:24;;;;;;;2.03;0.60;;;;;;;19.98;39.05;101790.22;4995772;28;20084;-85
2021/09/30 12:05:56;;;;;;;6.78;0.90;;;;;;;19.43;39.14;101787.38;4985531;28;20053;-85
2021/09/30 12:08:23;;;;;;;5.18;1.05;;;;;;;18.19;41.66;101794.88;4969603;28;20061;-86
2021/09/30 12:11:00;;;;;;;2.50;0.70;;;;;;;18.37;41.71;101796.25;4983245;28;23583;-83
2021/09/30 12:13:27;;;;;;;2.33;1.13;;;;;;;18.59;40.91;101777.16;4972418;28;20659;-87
2021/09/30 12:16:04;;;;;;;5.40;0.60;;;;;;;19.54;39.70;101789.72;4981443;28;20101;-85
2021/09/30 12:18:31;;;;;;;1.45;0.60;;;;;;;20.37;38.22;101791.69;4982036;28;20525;-87
2021/09/30 12:20:58;;;;;;;2.33;0.88;;;;;;;20.58;37.84;101790.13;4983493;28;20050;-86
2021/09/30 12:23:26;;;;;;;2.45;0.80;;;;;;;19.69;39.08;101777.78;4984448;28;20053;-86
2021/09/30 12:25:54;;;;;;;2.75;0.90;;;;;;;19.31;40.60;101779.75;4997339;28;20094;-85
2021/09/30 12:28:20;;;;;;;3.90;0.88;;;;;;;18.95;41.02;101788.63;4983019;28;20634;-84
2021/09/30 12:30:47;;;;;;;4.50;1.85;;;;;;;17.61;43.27;101795.19;4980835;28;20042;-85
2021/09/30 12:33:14;;;;;;;4.63;1.02;;;;;;;16.67;46.20;101794.19;4966655;28;20050;-84
2021/09/30 12:35:43;;;;;;;3.17;1.00;;;;;;;16.22;47.86;101786.94;4967273;28;20066;-87
2021/09/30 12:38:23;;;;;;;3.30;1.30;;;;;;;17.14;46.12;101781.97;4982707;28;20042;-84
2021/09/30 12:40:53;;;;;;;1.95;1.15;;;;;;;17.37;45.99;101793.88;4981488;28;20049;-85
2021/09/30 12:43:28;;;;;;;3.85;1.10;;;;;;;16.85;46.11;101785.09;4965526;28;20060;-86
2021/09/30 12:46:07;;;;;;;4.93;0.85;;;;;;;16.20;48.31;101792.25;4981049;28;20051;-87
2021/09/30 12:48:36;;;;;;;4.15;1.25;;;;;;;15.93;48.99;101790.88;4982342;28;20508;-85
2021/09/30 12:51:20;;;;;;;2.58;0.70;;;;;;;15.84;49.71;101799.78;4994307;28;20054;-84
2021/09/30 12:53:51;;;;;;;1.23;0.73;;;;;;;16.40;48.06;101787.56;4968575;28;20064;-85
2021/09/30 12:56:22;;;;;;;3.25;0.65;;;;;;;17.81;44.73;101778.88;4965041;28;20045;-85
2021/09/30 12:58:52;;;;;;;2.78;0.70;;;;;;;19.04;41.44;101760.16;4980218;28;20061;-85
2021/09/30 13:01:33;;;;;;;3.60;1.90;;;;;;;19.03;41.26;101775.16;5001202;28;20050;-85
2021/09/30 13:04:24;;;;;;;2.38;0.88;;;;;;;18.48;42.05;101770.31;4985305;28;20049;-84
2021/09/30 13:07:10;;;;;;;5.65;0.80;;;;;;;17.17;44.46;101766.03;4995075;28;20425;-86
2021/09/30 13:09:40;;;;;;;3.00;1.05;;;;;;;16.56;46.38;101778.50;4998059;28;20199;-86
2021/09/30 13:12:20;;;;;;;3.00;0.70;;;;;;;16.17;47.34;101772.94;5002312;28;20041;-86
2021/09/30 13:14:54;;;;;;;2.30;0.93;;;;;;;15.93;48.04;101774.13;4978458;28;20062;-86
2021/09/30 13:17:26;;;;;;;3.75;0.93;;;;;;;15.70;48.31;101773.50;4965437;28;20556;-85
2021/09/30 13:20:00;;;;;;;2.03;0.68;;;;;;;15.58;48.47;101771.03;4982739;28;20563;-85
2021/09/30 13:22:33;;;;;;;3.70;1.33;;;;;;;15.55;48.50;101766.66;4969520;28;20141;-87
2021/09/30 13:25:07;;;;;;;1.73;0.60;;;;;;;15.43;48.73;101766.78;4969389;28;20057;-84
2021/09/30 13:27:37;;;;;;;1.70;0.57;;;;;;;15.20;49.30;101762.66;4989068;28;20102;-85
2021/09/30 13:30:08;;;;;;;5.15;0.52;;;;;;;14.97;49.74;101759.38;4987004;28;20821;-85
2021/09/30 13:32:35;;;;;;;3.25;0.65;;;;;;;14.83;50.37;101756.84;4998086;28;20050;-85
2021/09/30 13:35:06;;;;;;;1.83;0.73;;;;;;;14.72;50.87;101755.19;4992686;28;20065;-85
2021/09/30 13:37:32;;;;;;;7.72;1.10;;;;;;;14.65;51.31;101753.50;4982142;28;20053;-85
2021/09/30 13:40:00;;;;;;;7.03;0.93;;;;;;;15.29;50.23;101751.13;4968668;28;20089;-84
2021/09/30 13:42:43;;;;;;;4.18;0.40;;;;;;;17.35;44.57;101742.75;4980673;28;20482;-85
2021/09/30 13:45:13;;;;;;;6.93;1.05;;;;;;;19.50;39.53;101738.50;4985250;28;20037;-84
2021/09/30 13:47:40;;;;;;;3.97;0.88;;;;;;;20.94;36.91;101730.44;4981554;28;20046;-86
2021/09/30 13:50:16;;;;;;;1.63;0.40;;;;;;;22.09;34.64;101729.72;4977427;28;20344;-86
2021/09/30 13:52:45;;;;;;;2.13;0.57;;;;;;;22.53;32.53;101732.38;4977065;28;20057;-84
2021/09/30 13:55:14;;;;;;;4.45;1.23;;;;;;;22.04;33.24;101731.69;4982253;28;20050;-87
2021/09/30 13:57:43;;;;;;;4.65;1.17;;;;;;;20.87;34.94;101724.47;4967412;28;20053;-85
2021/09/30 14:00:14;;;;;;;3.15;0.60;;;;;;;19.77;37.38;101729.75;4998340;28;20066;-85
2021/09/30 14:02:43;;;;;;;2.05;0.80;;;;;;;18.75;39.52;101733.44;4968643;28;20054;-84
2021/09/30 14:05:12;;;;;;;2.45;0.75;;;;;;;17.72;40.84;101730.53;4980526;28;20054;-86
2021/09/30 14:07:41;;;;;;;6.25;1.73;;;;;;;17.05;42.51;101738.94;4965037;28;20112;-85
2021/09/30 14:10:13;;;;;;;6.57;0.85;;;;;;;16.64;43.75;101741.38;4970196;28;20141;-87
2021/09/30 14:12:40;;;;;;;7.55;0.73;;;;;;;16.37;44.65;101743.56;4977778;28;20101;-85
2021/09/30 14:15:10;;;;;;;6.68;1.60;;;;;;;16.16;45.07;101735.06;4996834;28;20061;-87
2021/09/30 14:17:39;;;;;;;2.70;0.77;;;;;;;16.12;44.34;101740.44;4973859;28;20042;-86
2021/09/30 14:20:06;;;;;;;2.72;1.35;;;;;;;16.04;44.78;101735.25;4986971;28;20145;-85